createdAt,value
2022-11-16T00:00:25.794Z,22.03
2022-11-16T00:02:30.248Z,22.01
2022-11-16T00:04:35.021Z,22
2022-11-16T00:06:39.473Z,21.98
2022-11-16T00:08:44.019Z,21.98
2022-11-16T00:10:48.400Z,21.96
2022-11-16T00:12:52.849Z,21.95
2022-11-16T00:14:57.313Z,21.94
2022-11-16T00:17:01.736Z,21.93
2022-11-16T00:19:06.160Z,21.93
2022-11-16T00:21:10.589Z,21.92
2022-11-16T00:23:15.010Z,21.92
2022-11-16T00:25:19.502Z,21.92
2022-11-16T00:27:25.885Z,21.91
2022-11-16T00:29:30.312Z,21.9
2022-11-16T00:31:34.738Z,21.9
2022-11-16T00:33:39.138Z,21.89
2022-11-16T00:35:43.591Z,21.88
2022-11-16T00:37:48.019Z,21.87
2022-11-16T00:39:52.471Z,21.86
2022-11-16T00:41:56.869Z,21.86
2022-11-16T00:44:01.363Z,21.86
2022-11-16T00:46:05.882Z,21.85
2022-11-16T00:48:10.381Z,21.84
2022-11-16T00:50:14.790Z,21.83
2022-11-16T00:52:19.219Z,21.82
2022-11-16T00:54:23.665Z,21.81
2022-11-16T00:56:28.105Z,21.79
2022-11-16T00:58:32.950Z,21.79
2022-11-16T01:00:38.644Z,21.79
2022-11-16T01:02:43.064Z,21.78
2022-11-16T01:04:47.537Z,21.77
2022-11-16T01:06:51.972Z,21.75
2022-11-16T01:08:56.846Z,21.74
2022-11-16T01:11:01.308Z,21.75
2022-11-16T01:13:05.742Z,21.76
2022-11-16T01:15:10.239Z,21.77
2022-11-16T01:17:14.638Z,21.78
2022-11-16T01:19:19.135Z,21.77
2022-11-16T01:21:23.575Z,21.77
2022-11-16T01:23:28.013Z,21.76
2022-11-16T01:25:32.470Z,21.76
2022-11-16T01:27:36.893Z,21.75
2022-11-16T01:29:41.351Z,21.74
2022-11-16T01:31:45.808Z,21.73
2022-11-16T01:33:50.241Z,21.73
2022-11-16T01:35:54.637Z,21.71
2022-11-16T01:37:59.093Z,21.71
2022-11-16T01:40:03.635Z,21.72
2022-11-16T01:42:08.121Z,21.72
2022-11-16T01:44:12.581Z,21.72
2022-11-16T01:46:17.006Z,21.7
2022-11-16T01:48:21.504Z,21.68
2022-11-16T01:50:26.163Z,21.66
2022-11-16T01:52:30.551Z,21.65
2022-11-16T01:54:35.012Z,21.64
2022-11-16T01:56:39.429Z,21.62
2022-11-16T01:58:43.830Z,21.62
2022-11-16T02:00:48.269Z,21.62
2022-11-16T02:02:52.970Z,21.61
2022-11-16T02:04:57.413Z,21.6
2022-11-16T02:07:01.871Z,21.59
2022-11-16T02:09:06.424Z,21.58
2022-11-16T02:11:10.720Z,21.57
2022-11-16T02:13:15.062Z,21.57
2022-11-16T02:15:19.412Z,21.57
2022-11-16T02:17:23.705Z,21.57
2022-11-16T02:19:28.068Z,21.57
2022-11-16T02:21:32.378Z,21.57
2022-11-16T02:23:36.666Z,21.56
2022-11-16T02:25:41.035Z,21.55
2022-11-16T02:27:45.326Z,21.54
2022-11-16T02:29:49.639Z,21.53
2022-11-16T02:31:53.952Z,21.53
2022-11-16T02:33:58.269Z,21.52
2022-11-16T02:36:02.570Z,21.5
2022-11-16T02:38:06.852Z,21.49
2022-11-16T02:40:11.156Z,21.48
2022-11-16T02:42:15.493Z,21.47
2022-11-16T02:44:19.810Z,21.46
2022-11-16T02:46:24.276Z,21.45
2022-11-16T02:48:28.559Z,21.44
2022-11-16T02:50:33.200Z,21.43
2022-11-16T02:52:37.513Z,21.42
2022-11-16T02:54:41.825Z,21.4
2022-11-16T02:56:46.151Z,21.38
2022-11-16T02:58:50.454Z,21.37
2022-11-16T03:00:54.895Z,21.34
2022-11-16T03:02:59.424Z,21.32
2022-11-16T03:05:03.731Z,21.32
2022-11-16T03:07:08.081Z,21.3
2022-11-16T03:09:12.566Z,21.3
2022-11-16T03:11:16.835Z,21.29
2022-11-16T03:13:21.117Z,21.28
2022-11-16T03:15:25.432Z,21.27
2022-11-16T03:17:29.764Z,21.25
2022-11-16T03:19:34.031Z,21.24
2022-11-16T03:21:38.341Z,21.22
2022-11-16T03:23:42.674Z,21.21
2022-11-16T03:25:46.980Z,21.2
2022-11-16T03:27:51.337Z,21.19
2022-11-16T03:29:55.634Z,21.19
2022-11-16T03:31:59.993Z,21.17
2022-11-16T03:34:04.307Z,21.16
2022-11-16T03:36:08.612Z,21.17
2022-11-16T03:38:13.047Z,21.15
2022-11-16T03:40:17.366Z,21.14
2022-11-16T03:42:21.689Z,21.14
2022-11-16T03:44:26.005Z,21.13
2022-11-16T03:46:30.317Z,21.12
2022-11-16T03:48:34.867Z,21.12
2022-11-16T03:50:39.865Z,21.09
2022-11-16T03:52:44.164Z,21.1
2022-11-16T03:54:48.547Z,21.09
2022-11-16T03:56:52.832Z,21.09
2022-11-16T03:58:57.463Z,21.09
2022-11-16T04:01:01.809Z,21.08
2022-11-16T04:03:06.635Z,21.07
2022-11-16T04:05:11.246Z,21.05
2022-11-16T04:07:15.625Z,21.04
2022-11-16T04:09:20.258Z,21.03
2022-11-16T04:11:24.535Z,21.04
2022-11-16T04:13:28.845Z,21.04
2022-11-16T04:15:33.173Z,21.05
2022-11-16T04:17:37.470Z,21.06
2022-11-16T04:19:41.781Z,21.06
2022-11-16T04:21:46.136Z,21.06
2022-11-16T04:23:50.435Z,21.06
2022-11-16T04:25:54.770Z,21.05
2022-11-16T04:27:59.079Z,21.04
2022-11-16T04:30:03.419Z,21.04
2022-11-16T04:32:07.756Z,21.03
2022-11-16T04:34:12.173Z,21.03
2022-11-16T04:36:20.359Z,21.01
2022-11-16T04:38:24.903Z,21.01
2022-11-16T04:40:29.228Z,21
2022-11-16T04:42:33.564Z,20.98
2022-11-16T04:44:37.912Z,20.98
2022-11-16T04:46:42.190Z,20.96
2022-11-16T04:48:46.487Z,20.93
2022-11-16T04:50:50.825Z,20.91
2022-11-16T04:52:55.165Z,20.9
2022-11-16T04:54:59.522Z,20.87
2022-11-16T04:57:03.874Z,20.83
2022-11-16T04:59:08.166Z,20.82
2022-11-16T05:01:12.486Z,20.8
2022-11-16T05:03:17.083Z,20.79
2022-11-16T05:05:21.432Z,20.8
2022-11-16T05:07:25.899Z,20.8
2022-11-16T05:09:30.441Z,20.79
2022-11-16T05:11:34.783Z,20.77
2022-11-16T05:13:39.119Z,20.76
2022-11-16T05:15:43.384Z,20.75
2022-11-16T05:17:47.704Z,20.76
2022-11-16T05:19:52.017Z,20.75
2022-11-16T05:21:56.347Z,20.75
2022-11-16T05:24:00.641Z,20.74
2022-11-16T05:26:04.960Z,20.74
2022-11-16T05:28:09.345Z,20.72
2022-11-16T05:30:13.624Z,20.71
2022-11-16T05:32:17.930Z,20.69
2022-11-16T05:34:22.271Z,20.68
2022-11-16T05:36:26.570Z,20.68
2022-11-16T05:38:31.044Z,20.69
2022-11-16T05:40:36.397Z,20.7
2022-11-16T05:42:40.685Z,20.71
2022-11-16T05:44:45.003Z,20.76
2022-11-16T05:46:49.308Z,20.85
2022-11-16T05:48:53.658Z,20.94
2022-11-16T05:50:57.947Z,21.02
2022-11-16T05:53:02.243Z,21.09
2022-11-16T05:55:06.646Z,21.16
2022-11-16T05:57:10.988Z,21.22
2022-11-16T05:59:16.670Z,21.28
2022-11-16T06:01:21.061Z,21.34
2022-11-16T06:03:25.435Z,21.39
2022-11-16T06:08:18.366Z,21.46
2022-11-16T06:10:22.702Z,21.49
2022-11-16T06:12:27.031Z,21.53
2022-11-16T06:14:31.511Z,21.55
2022-11-16T06:16:35.878Z,21.58
2022-11-16T06:18:40.246Z,21.61
2022-11-16T06:20:44.577Z,21.65
2022-11-16T06:22:48.921Z,21.69
2022-11-16T06:24:53.228Z,21.73
2022-11-16T06:26:57.568Z,21.78
2022-11-16T06:29:01.908Z,21.82
2022-11-16T06:31:06.214Z,21.87
2022-11-16T06:33:10.515Z,21.92
2022-11-16T06:35:14.813Z,21.96
2022-11-16T06:37:19.144Z,21.96
2022-11-16T06:39:23.482Z,21.97
2022-11-16T06:41:27.779Z,22
2022-11-16T06:43:32.044Z,22.02
2022-11-16T06:45:36.404Z,22.07
2022-11-16T06:47:40.698Z,22.1
2022-11-16T06:49:45.047Z,22.13
2022-11-16T06:51:49.348Z,22.15
2022-11-16T06:53:53.741Z,22.18
2022-11-16T06:55:58.042Z,22.21
2022-11-16T06:58:02.339Z,22.22
2022-11-16T07:00:06.703Z,22.22
2022-11-16T07:02:11.058Z,22.23
2022-11-16T07:04:15.568Z,22.24
2022-11-16T07:06:19.885Z,22.28
2022-11-16T07:08:24.235Z,22.3
2022-11-16T07:10:28.575Z,22.31
2022-11-16T07:12:32.988Z,22.3
2022-11-16T07:14:37.289Z,22.3
2022-11-16T07:16:41.742Z,22.31
2022-11-16T07:18:46.031Z,22.32
2022-11-16T07:20:50.383Z,22.34
2022-11-16T07:22:54.689Z,22.36
2022-11-16T07:24:58.957Z,22.38
2022-11-16T07:27:03.323Z,22.4
2022-11-16T07:29:07.628Z,22.42
2022-11-16T07:31:11.986Z,22.4
2022-11-16T07:33:16.268Z,22.41
2022-11-16T07:35:20.587Z,22.4
2022-11-16T07:37:24.887Z,22.39
2022-11-16T07:39:29.170Z,22.38
2022-11-16T07:41:33.533Z,22.36
2022-11-16T07:43:38.073Z,22.36
2022-11-16T07:45:42.358Z,22.35
2022-11-16T07:47:46.692Z,22.35
2022-11-16T07:49:51.001Z,22.35
2022-11-16T07:51:55.331Z,22.33
2022-11-16T07:53:59.658Z,22.34
2022-11-16T07:56:03.995Z,22.34
2022-11-16T07:58:08.363Z,22.34
2022-11-16T08:00:12.645Z,22.34
2022-11-16T08:02:17.056Z,22.35
2022-11-16T08:04:21.439Z,22.35
2022-11-16T08:06:25.746Z,22.35
2022-11-16T08:08:30.080Z,22.35
2022-11-16T08:10:35.269Z,22.35
2022-11-16T08:12:39.637Z,22.35
2022-11-16T08:14:43.982Z,22.36
2022-11-16T08:16:48.271Z,22.36
2022-11-16T08:18:52.565Z,22.37
2022-11-16T08:20:56.919Z,22.38
2022-11-16T08:23:01.280Z,22.37
2022-11-16T08:25:05.650Z,22.37
2022-11-16T08:27:09.993Z,22.37
2022-11-16T08:29:14.322Z,22.37
2022-11-16T08:31:18.637Z,22.37
2022-11-16T08:33:22.967Z,22.38
2022-11-16T08:35:27.295Z,22.38
2022-11-16T08:40:02.708Z,22.37
2022-11-16T08:42:07.041Z,22.36
2022-11-16T08:44:11.351Z,22.37
2022-11-16T08:46:17.652Z,22.36
2022-11-16T08:48:22.024Z,22.35
2022-11-16T08:50:26.328Z,22.36
2022-11-16T08:52:30.679Z,22.34
2022-11-16T08:54:35.050Z,22.33
2022-11-16T08:56:39.440Z,22.32
2022-11-16T08:58:43.812Z,22.32
2022-11-16T09:00:48.212Z,22.3
2022-11-16T09:02:52.598Z,22.27
2022-11-16T09:04:56.956Z,22.26
2022-11-16T09:07:01.377Z,22.26
2022-11-16T09:09:06.177Z,22.26
2022-11-16T09:11:10.528Z,22.27
2022-11-16T09:13:14.923Z,22.28
2022-11-16T09:15:19.269Z,22.3
2022-11-16T09:17:23.675Z,22.3
2022-11-16T09:19:28.038Z,22.32
2022-11-16T09:21:32.361Z,22.32
2022-11-16T09:23:36.731Z,22.32
2022-11-16T09:25:41.079Z,22.35
2022-11-16T09:27:45.434Z,22.35
2022-11-16T09:29:49.827Z,22.35
2022-11-16T09:31:54.161Z,22.36
2022-11-16T09:33:58.776Z,22.36
2022-11-16T09:36:03.199Z,22.37
2022-11-16T09:38:07.564Z,22.37
2022-11-16T09:40:11.928Z,22.38
2022-11-16T09:42:16.338Z,22.39
2022-11-16T09:44:20.730Z,22.39
2022-11-16T09:46:25.058Z,22.39
2022-11-16T09:48:29.415Z,22.39
2022-11-16T09:50:33.758Z,22.4
2022-11-16T09:52:38.124Z,22.4
2022-11-16T09:54:42.546Z,22.4
2022-11-16T09:56:46.913Z,22.4
2022-11-16T09:58:51.272Z,22.41
2022-11-16T10:00:55.696Z,22.41
2022-11-16T10:03:00.350Z,22.41
2022-11-16T10:05:04.807Z,22.41
2022-11-16T10:07:09.225Z,22.42
2022-11-16T10:09:13.834Z,22.43
2022-11-16T10:11:18.162Z,22.42
2022-11-16T10:13:22.510Z,22.42
2022-11-16T10:15:26.942Z,22.43
2022-11-16T10:17:31.279Z,22.43
2022-11-16T10:19:35.654Z,22.44
2022-11-16T10:21:40.003Z,22.45
2022-11-16T10:23:44.363Z,22.45
2022-11-16T10:25:48.823Z,22.45
2022-11-16T10:27:53.153Z,22.45
2022-11-16T10:29:57.539Z,22.45
2022-11-16T10:32:02.484Z,22.46
2022-11-16T10:34:06.914Z,22.47
2022-11-16T10:36:11.351Z,22.47
2022-11-16T10:38:15.867Z,22.48
2022-11-16T10:40:20.422Z,22.47
2022-11-16T10:42:24.837Z,22.47
2022-11-16T10:44:29.157Z,22.47
2022-11-16T10:46:33.465Z,22.47
2022-11-16T10:48:37.875Z,22.46
2022-11-16T10:50:42.247Z,22.47
2022-11-16T10:52:46.565Z,22.47
2022-11-16T10:54:50.918Z,22.47
2022-11-16T10:56:55.255Z,22.48
2022-11-16T10:58:59.683Z,22.48
2022-11-16T11:01:04.073Z,22.48
2022-11-16T11:03:08.673Z,22.48
2022-11-16T11:05:13.035Z,22.48
2022-11-16T11:07:17.422Z,22.48
2022-11-16T11:09:21.881Z,22.49
2022-11-16T11:11:26.256Z,22.5
2022-11-16T11:13:30.834Z,22.5
2022-11-16T11:15:36.144Z,22.51
2022-11-16T11:17:40.513Z,22.51
2022-11-16T11:19:44.813Z,22.52
2022-11-16T11:21:49.199Z,22.52
2022-11-16T11:23:53.571Z,22.52
2022-11-16T11:25:57.883Z,22.52
2022-11-16T11:28:02.156Z,22.53
2022-11-16T11:30:06.449Z,22.53
2022-11-16T11:32:10.768Z,22.53
2022-11-16T11:34:15.132Z,22.54
2022-11-16T11:36:19.461Z,22.54
2022-11-16T11:38:23.819Z,22.55
2022-11-16T11:40:28.151Z,22.54
2022-11-16T11:42:32.443Z,22.55
2022-11-16T11:44:36.785Z,22.57
2022-11-16T11:47:18.569Z,22.59
2022-11-16T11:50:01.673Z,22.62
2022-11-16T11:52:05.983Z,22.62
2022-11-16T11:54:10.320Z,22.62
2022-11-16T11:56:14.627Z,22.62
2022-11-16T11:58:18.953Z,22.61
2022-11-16T12:00:23.300Z,22.6
2022-11-16T12:02:27.672Z,22.59
2022-11-16T12:04:32.028Z,22.58
2022-11-16T12:06:39.889Z,22.57
2022-11-16T12:08:47.780Z,22.56
2022-11-16T12:10:52.158Z,22.56
2022-11-16T12:12:56.477Z,22.55
2022-11-16T12:15:00.948Z,22.55
2022-11-16T12:17:05.235Z,22.59
2022-11-16T12:19:09.563Z,22.62
2022-11-16T12:21:13.923Z,22.63
2022-11-16T12:23:18.231Z,22.65
2022-11-16T12:25:22.584Z,22.67
2022-11-16T12:27:26.988Z,22.69
2022-11-16T12:29:31.393Z,22.7
2022-11-16T12:31:35.688Z,22.74
2022-11-16T12:33:39.985Z,22.76
2022-11-16T12:35:44.362Z,22.78
2022-11-16T12:37:48.671Z,22.8
2022-11-16T12:39:53.038Z,22.8
2022-11-16T12:41:57.450Z,22.8
2022-11-16T12:44:01.771Z,22.82
2022-11-16T12:46:06.115Z,22.82
2022-11-16T12:48:10.503Z,22.82
2022-11-16T12:50:14.807Z,22.83
2022-11-16T12:52:19.149Z,22.83
2022-11-16T12:54:23.488Z,22.83
2022-11-16T12:56:27.873Z,22.85
2022-11-16T12:58:32.228Z,22.85
2022-11-16T13:00:36.599Z,22.85
2022-11-16T13:02:42.129Z,22.85
2022-11-16T13:04:46.432Z,22.85
2022-11-16T13:06:51.082Z,22.85
2022-11-16T13:08:55.616Z,22.87
2022-11-16T13:10:59.981Z,22.9
2022-11-16T13:15:40.373Z,22.93
2022-11-16T13:17:44.746Z,22.95
2022-11-16T13:19:49.137Z,22.96
2022-11-16T13:21:53.465Z,22.97
2022-11-16T13:23:57.823Z,22.98
2022-11-16T13:26:02.372Z,22.98
2022-11-16T13:28:06.808Z,22.96
2022-11-16T13:30:11.139Z,22.97
2022-11-16T13:32:15.459Z,22.97
2022-11-16T13:34:20.022Z,22.95
2022-11-16T13:36:24.371Z,22.93
2022-11-16T13:38:28.723Z,22.91
2022-11-16T13:40:33.317Z,22.89
2022-11-16T13:42:37.669Z,22.89
2022-11-16T13:44:42.984Z,22.89
2022-11-16T13:46:56.440Z,22.89
2022-11-16T13:49:01.249Z,22.88
2022-11-16T13:51:05.608Z,22.88
2022-11-16T13:56:47.435Z,22.86
2022-11-16T13:58:51.823Z,22.85
2022-11-16T14:00:56.143Z,22.84
2022-11-16T14:03:01.305Z,22.84
2022-11-16T14:05:05.821Z,22.83
2022-11-16T14:07:10.145Z,22.84
2022-11-16T14:09:14.795Z,22.85
2022-11-16T14:11:19.197Z,22.84
2022-11-16T14:13:23.588Z,22.84
2022-11-16T14:15:27.905Z,22.83
2022-11-16T14:17:32.426Z,22.82
2022-11-16T14:19:36.801Z,22.81
2022-11-16T14:21:41.110Z,22.79
2022-11-16T14:23:45.480Z,22.8
2022-11-16T14:25:49.827Z,22.79
2022-11-16T14:27:54.167Z,22.82
2022-11-16T14:29:58.530Z,22.81
2022-11-16T14:32:03.027Z,22.81
2022-11-16T14:34:07.414Z,22.82
2022-11-16T14:36:11.774Z,22.84
2022-11-16T14:38:16.195Z,22.85
2022-11-16T14:40:20.502Z,22.87
2022-11-16T14:42:24.862Z,22.89
2022-11-16T14:44:29.373Z,22.9
2022-11-16T14:46:33.726Z,22.91
2022-11-16T14:48:38.098Z,22.92
2022-11-16T14:50:42.429Z,22.94
2022-11-16T14:52:46.744Z,22.94
2022-11-16T14:54:51.131Z,22.94
2022-11-16T14:56:55.512Z,22.95
2022-11-16T14:58:59.891Z,22.95
2022-11-16T15:01:04.277Z,22.96
2022-11-16T15:03:08.671Z,22.97
2022-11-16T15:05:13.212Z,22.96
2022-11-16T15:07:17.625Z,22.97
2022-11-16T15:09:22.237Z,22.97
2022-11-16T15:11:26.670Z,22.97
2022-11-16T15:13:31.010Z,22.97
2022-11-16T15:15:36.154Z,22.98
2022-11-16T15:17:40.561Z,22.98
2022-11-16T15:19:44.904Z,22.98
2022-11-16T15:21:49.249Z,22.97
2022-11-16T15:24:15.835Z,22.98
2022-11-16T15:26:35.190Z,22.97
2022-11-16T15:28:39.593Z,22.98
2022-11-16T15:30:52.356Z,22.98
2022-11-16T15:32:56.687Z,23
2022-11-16T15:35:05.059Z,23.01
2022-11-16T15:37:09.758Z,23.02
2022-11-16T15:39:14.237Z,23.03
2022-11-16T15:41:18.606Z,23.03
2022-11-16T15:43:22.934Z,23.01
2022-11-16T15:45:27.235Z,23
2022-11-16T15:47:31.585Z,22.97
2022-11-16T15:49:35.901Z,22.95
2022-11-16T15:51:40.319Z,22.92
2022-11-16T15:53:44.686Z,22.92
2022-11-16T15:55:49.114Z,22.91
2022-11-16T15:57:53.810Z,22.9
2022-11-16T15:59:58.127Z,22.9
2022-11-16T16:02:02.524Z,22.93
2022-11-16T16:04:06.876Z,22.96
2022-11-16T16:06:11.557Z,22.97
2022-11-16T16:08:15.925Z,22.99
2022-11-16T16:10:20.258Z,22.95
2022-11-16T16:12:24.696Z,22.93
2022-11-16T16:14:29.090Z,22.91
2022-11-16T16:16:33.418Z,22.9
2022-11-16T16:18:37.812Z,22.9
2022-11-16T16:20:42.149Z,22.88
2022-11-16T16:22:46.523Z,22.87
2022-11-16T16:24:50.901Z,22.86
2022-11-16T16:26:55.342Z,22.86
2022-11-16T16:28:59.723Z,22.84
2022-11-16T16:31:04.072Z,22.84
2022-11-16T16:33:08.417Z,22.86
2022-11-16T16:35:12.790Z,22.86
2022-11-16T16:37:17.142Z,22.85
2022-11-16T16:39:21.463Z,22.85
2022-11-16T16:41:25.826Z,22.85
2022-11-16T16:43:30.154Z,22.85
2022-11-16T16:45:34.970Z,22.78
2022-11-16T16:47:39.442Z,22.68
2022-11-16T16:49:43.779Z,22.6
2022-11-16T16:51:48.418Z,22.5
2022-11-16T16:53:52.771Z,22.45
2022-11-16T16:55:57.147Z,22.41
2022-11-16T16:58:01.667Z,22.36
2022-11-16T17:00:06.111Z,22.33
2022-11-16T17:02:10.766Z,22.32
2022-11-16T17:04:15.164Z,22.29
2022-11-16T17:06:19.545Z,22.27
2022-11-16T17:08:23.957Z,22.25
2022-11-16T17:10:28.365Z,22.24
2022-11-16T17:12:32.663Z,22.24
2022-11-16T17:14:37.027Z,22.24
2022-11-16T17:16:41.326Z,22.25
2022-11-16T17:18:45.694Z,22.25
2022-11-16T17:20:50.100Z,22.25
2022-11-16T17:22:54.432Z,22.28
2022-11-16T17:24:58.923Z,22.35
2022-11-16T17:27:03.263Z,22.4
2022-11-16T17:29:07.667Z,22.45
2022-11-16T17:31:12.160Z,22.5
2022-11-16T17:33:16.508Z,22.54
2022-11-16T17:35:20.872Z,22.58
2022-11-16T17:37:25.248Z,22.64
2022-11-16T17:39:29.608Z,22.68
2022-11-16T17:41:33.962Z,22.72
2022-11-16T17:43:38.421Z,22.74
2022-11-16T17:45:42.750Z,22.77
2022-11-16T17:47:47.070Z,22.79
2022-11-16T17:49:51.405Z,22.79
2022-11-16T17:51:55.739Z,22.79
2022-11-16T17:54:00.082Z,22.83
2022-11-16T17:56:04.444Z,22.86
2022-11-16T17:58:08.783Z,22.89
2022-11-16T18:00:13.073Z,22.91
2022-11-16T18:02:17.416Z,22.92
2022-11-16T18:04:21.745Z,22.94
2022-11-16T18:06:26.156Z,22.96
2022-11-16T18:08:30.508Z,22.98
2022-11-16T18:10:34.913Z,22.99
2022-11-16T18:12:39.276Z,23
2022-11-16T18:14:54.889Z,23.01
2022-11-16T18:17:31.906Z,23.03
2022-11-16T18:19:36.296Z,23.04
2022-11-16T18:21:40.680Z,23.06
2022-11-16T18:23:45.051Z,23.09
2022-11-16T18:25:49.419Z,23.12
2022-11-16T18:27:53.772Z,23.16
2022-11-16T18:29:58.166Z,23.19
2022-11-16T18:32:02.565Z,23.19
2022-11-16T18:34:06.915Z,23.18
2022-11-16T18:36:11.269Z,23.19
2022-11-16T18:38:15.621Z,23.19
2022-11-16T18:40:19.958Z,23.19
2022-11-16T18:42:24.652Z,23.17
2022-11-16T18:44:28.963Z,23.17
2022-11-16T18:46:33.435Z,23.16
2022-11-16T18:48:37.745Z,23.18
2022-11-16T18:50:42.061Z,23.22
2022-11-16T18:52:46.426Z,23.23
2022-11-16T18:54:50.752Z,23.23
2022-11-16T18:56:55.095Z,23.25
2022-11-16T18:58:59.627Z,23.27
2022-11-16T19:01:04.010Z,23.27
2022-11-16T19:03:11.313Z,23.3
2022-11-16T19:05:15.808Z,23.31
2022-11-16T19:07:20.232Z,23.31
2022-11-16T19:09:24.871Z,23.29
2022-11-16T19:11:29.256Z,23.28
2022-11-16T19:13:34.006Z,23.28
2022-11-16T19:15:39.834Z,23.27
2022-11-16T19:18:06.564Z,23.27
2022-11-16T19:20:25.476Z,23.28
2022-11-16T19:22:29.839Z,23.28
2022-11-16T19:24:34.183Z,23.31
2022-11-16T19:26:38.575Z,23.35
2022-11-16T19:28:42.914Z,23.39
2022-11-16T19:30:47.285Z,23.44
2022-11-16T19:32:51.614Z,23.48
2022-11-16T19:34:55.967Z,23.51
2022-11-16T19:37:00.354Z,23.53
2022-11-16T19:39:04.712Z,23.53
2022-11-16T19:41:09.182Z,23.51
2022-11-16T19:43:13.558Z,23.52
2022-11-16T19:45:17.897Z,23.56
2022-11-16T19:47:22.310Z,23.58
2022-11-16T19:49:26.667Z,23.58
2022-11-16T19:51:31.046Z,23.58
2022-11-16T19:53:35.681Z,23.56
2022-11-16T19:55:40.994Z,23.55
2022-11-16T19:57:45.444Z,23.56
2022-11-16T19:59:49.797Z,23.58
2022-11-16T20:01:54.150Z,23.61
2022-11-16T20:03:58.534Z,23.62
2022-11-16T20:06:02.914Z,23.6
2022-11-16T20:08:07.263Z,23.59
2022-11-16T20:10:11.632Z,23.6
2022-11-16T20:12:15.997Z,23.6
2022-11-16T20:14:20.473Z,23.61
2022-11-16T20:16:24.987Z,23.63
2022-11-16T20:18:29.323Z,23.65
2022-11-16T20:20:33.677Z,23.66
2022-11-16T20:22:38.048Z,23.67
2022-11-16T20:24:42.396Z,23.67
2022-11-16T20:26:46.769Z,23.68
2022-11-16T20:28:51.175Z,23.69
2022-11-16T20:30:55.549Z,23.72
2022-11-16T20:32:59.914Z,23.73
2022-11-16T20:35:04.317Z,23.75
2022-11-16T20:37:08.683Z,23.77
2022-11-16T20:39:13.014Z,23.77
2022-11-16T20:41:17.299Z,23.78
2022-11-16T20:43:21.647Z,23.78
2022-11-16T20:45:25.951Z,23.81
2022-11-16T20:47:30.340Z,23.85
2022-11-16T20:49:34.689Z,23.87
2022-11-16T20:51:39.030Z,23.89
2022-11-16T20:53:43.370Z,23.88
2022-11-16T20:55:47.691Z,23.9
2022-11-16T20:57:52.022Z,23.9
2022-11-16T20:59:56.420Z,23.9
2022-11-16T21:02:00.739Z,23.89
2022-11-16T21:04:05.098Z,23.88
2022-11-16T21:06:09.443Z,23.88
2022-11-16T21:08:13.798Z,23.88
2022-11-16T21:10:18.179Z,23.86
2022-11-16T21:12:22.502Z,23.87
2022-11-16T21:14:26.872Z,23.86
2022-11-16T21:16:31.196Z,23.85
2022-11-16T21:18:35.551Z,23.84
2022-11-16T21:20:39.964Z,23.86
2022-11-16T21:22:44.299Z,23.87
2022-11-16T21:24:48.609Z,23.84
2022-11-16T21:26:52.938Z,23.83
2022-11-16T21:28:57.249Z,23.82
2022-11-16T21:31:01.592Z,23.8
2022-11-16T21:33:05.898Z,23.79
2022-11-16T21:35:10.212Z,23.8
2022-11-16T21:37:14.595Z,23.79
2022-11-16T21:39:19.488Z,23.79
2022-11-16T21:41:23.815Z,23.79
2022-11-16T21:43:28.147Z,23.78
2022-11-16T21:45:32.486Z,23.72
2022-11-16T21:47:36.804Z,23.64
2022-11-16T21:49:59.469Z,23.57
2022-11-16T21:52:34.965Z,23.42
2022-11-16T21:54:39.276Z,23.34
2022-11-16T21:56:43.629Z,23.26
2022-11-16T21:58:47.914Z,23.2
2022-11-16T22:00:52.443Z,23.12
2022-11-16T22:02:57.089Z,23.06
2022-11-16T22:05:01.544Z,23.03
2022-11-16T22:07:05.940Z,22.98
2022-11-16T22:09:10.367Z,22.95
2022-11-16T22:11:14.733Z,22.91
2022-11-16T22:13:19.195Z,22.87
2022-11-16T22:15:23.615Z,22.83
2022-11-16T22:17:28.029Z,22.8
2022-11-16T22:19:32.430Z,22.76
2022-11-16T22:21:36.887Z,22.73
2022-11-16T22:23:41.721Z,22.71
2022-11-16T22:25:46.947Z,22.69
2022-11-16T22:28:18.898Z,22.65
2022-11-16T22:30:24.903Z,22.63
2022-11-16T22:32:29.324Z,22.6
2022-11-16T22:34:33.804Z,22.58
2022-11-16T22:36:38.314Z,22.54
2022-11-16T22:38:42.711Z,22.53
2022-11-16T22:40:47.205Z,22.51
2022-11-16T22:42:51.650Z,22.49
2022-11-16T22:44:56.129Z,22.47
2022-11-16T22:47:00.555Z,22.44
2022-11-16T22:49:04.988Z,22.43
2022-11-16T22:51:09.460Z,22.41
2022-11-16T22:53:13.883Z,22.38
2022-11-16T22:55:18.332Z,22.36
2022-11-16T22:57:22.774Z,22.33
2022-11-16T22:59:27.181Z,22.32
2022-11-16T23:01:31.634Z,22.3
2022-11-16T23:03:36.843Z,22.28
2022-11-16T23:05:42.870Z,22.27
2022-11-16T23:07:47.344Z,22.25
2022-11-16T23:09:51.784Z,22.24
2022-11-16T23:11:56.311Z,22.22
2022-11-16T23:14:00.744Z,22.2
2022-11-16T23:16:05.178Z,22.18
2022-11-16T23:18:09.617Z,22.17
2022-11-16T23:20:17.561Z,22.14
2022-11-16T23:22:22.292Z,22.12
2022-11-16T23:24:26.707Z,22.1
2022-11-16T23:26:31.187Z,22.09
2022-11-16T23:28:35.660Z,22.08
2022-11-16T23:30:40.103Z,22.07
2022-11-16T23:32:44.540Z,22.05
2022-11-16T23:34:48.959Z,22.03
2022-11-16T23:36:53.432Z,22.02
2022-11-16T23:38:57.942Z,22.01
2022-11-16T23:41:02.375Z,21.99
2022-11-16T23:43:06.850Z,21.99
2022-11-16T23:45:11.373Z,21.99
2022-11-16T23:47:15.804Z,21.98
2022-11-16T23:49:20.271Z,21.96
2022-11-16T23:51:24.773Z,21.96
2022-11-16T23:53:29.198Z,21.95
2022-11-16T23:55:33.660Z,21.92
2022-11-16T23:57:38.090Z,21.91
2022-11-16T23:59:42.581Z,21.9
